createdAt,value
2023-05-10T00:00:07.542Z,367.3846
2023-05-10T00:01:09.373Z,367.4615
2023-05-10T00:02:11.260Z,369.3077
2023-05-10T00:03:13.082Z,370.3077
2023-05-10T00:04:15.021Z,370.8462
2023-05-10T00:05:16.714Z,370.6923
2023-05-10T00:06:18.543Z,370.0769
2023-05-10T00:07:20.356Z,369.2308
2023-05-10T00:08:22.200Z,367.6154
2023-05-10T00:09:24.060Z,370.3077
2023-05-10T00:10:25.855Z,372.3077
2023-05-10T00:11:27.715Z,372.0000
2023-05-10T00:12:29.546Z,373.1538
2023-05-10T00:13:31.439Z,374.9231
2023-05-10T00:14:33.274Z,375.2308
2023-05-10T00:15:35.044Z,374.7692
2023-05-10T00:16:36.925Z,376.5385
2023-05-10T00:17:38.769Z,374.3846
2023-05-10T00:18:40.546Z,373.6923
2023-05-10T00:19:42.374Z,372.8462
2023-05-10T00:20:44.212Z,369.3077
2023-05-10T00:21:46.050Z,366.6923
2023-05-10T00:22:47.886Z,368.0769
2023-05-10T00:23:49.722Z,368.1538
2023-05-10T00:24:51.547Z,368.4615
2023-05-10T00:25:53.399Z,368.2308
2023-05-10T00:26:55.236Z,366.4615
2023-05-10T00:27:57.052Z,365.6154
2023-05-10T00:28:58.901Z,365.1538
2023-05-10T00:30:00.725Z,368.1538
2023-05-10T00:31:02.568Z,369.7692
2023-05-10T00:32:04.475Z,370.2308
2023-05-10T00:33:06.308Z,369.8462
2023-05-10T00:34:08.064Z,369.3846
2023-05-10T00:35:09.919Z,366.8462
2023-05-10T00:36:11.788Z,369.8462
2023-05-10T00:37:13.601Z,371.4615
2023-05-10T00:38:15.417Z,370.8462
2023-05-10T00:39:17.267Z,369.0000
2023-05-10T00:40:19.232Z,370.1538
2023-05-10T00:41:20.942Z,370.1538
2023-05-10T00:42:22.763Z,371.4615
2023-05-10T00:43:24.592Z,372.0000
2023-05-10T00:44:26.422Z,373.0000
2023-05-10T00:45:28.282Z,373.7692
2023-05-10T00:46:30.192Z,374.5385
2023-05-10T00:47:31.964Z,372.5385
2023-05-10T00:48:33.786Z,372.9231
2023-05-10T00:49:35.611Z,374.1538
2023-05-10T00:50:37.462Z,377.7692
2023-05-10T00:51:39.268Z,379.0000
2023-05-10T00:52:41.091Z,380.7692
2023-05-10T00:53:42.942Z,383.1538
2023-05-10T00:54:44.762Z,384.7692
2023-05-10T00:55:46.589Z,384.3077
2023-05-10T00:56:48.445Z,381.4615
2023-05-10T00:57:50.250Z,380.6923
2023-05-10T00:58:52.098Z,381.2308
2023-05-10T00:59:53.930Z,381.0000
2023-05-10T01:00:55.762Z,388.2308
2023-05-10T01:01:57.612Z,387.0000
2023-05-10T01:02:59.514Z,384.2308
2023-05-10T01:04:01.257Z,383.1538
2023-05-10T01:05:03.178Z,382.7692
2023-05-10T01:06:04.932Z,383.0000
2023-05-10T01:07:06.762Z,382.2308
2023-05-10T01:08:08.636Z,380.6923
2023-05-10T01:09:10.437Z,379.5385
2023-05-10T01:10:12.283Z,379.7692
2023-05-10T01:11:14.118Z,379.4615
2023-05-10T01:12:16.012Z,379.3846
2023-05-10T01:13:17.807Z,379.4615
2023-05-10T01:14:19.608Z,379.0769
2023-05-10T01:15:21.457Z,380.7692
2023-05-10T01:16:23.368Z,382.1538
2023-05-10T01:17:25.121Z,381.0000
2023-05-10T01:18:26.944Z,380.8462
2023-05-10T01:19:28.798Z,381.2308
2023-05-10T01:20:30.644Z,380.3077
2023-05-10T01:21:32.464Z,379.9231
2023-05-10T01:22:34.310Z,379.7692
2023-05-10T01:23:36.139Z,383.3846
2023-05-10T01:24:37.956Z,384.6154
2023-05-10T01:25:39.796Z,385.9231
2023-05-10T01:26:41.652Z,385.0769
2023-05-10T01:27:43.481Z,386.6923
2023-05-10T01:28:45.319Z,388.8462
2023-05-10T01:29:47.140Z,389.0769
2023-05-10T01:30:48.983Z,391.7692
2023-05-10T01:31:50.892Z,392.6923
2023-05-10T01:32:52.731Z,388.8462
2023-05-10T01:33:54.508Z,386.2308
2023-05-10T01:34:56.325Z,385.5385
2023-05-10T01:35:58.166Z,384.3077
2023-05-10T01:37:00.039Z,384.3846
2023-05-10T01:38:01.850Z,385.4615
2023-05-10T01:39:03.706Z,388.9231
2023-05-10T01:40:05.526Z,391.2308
2023-05-10T01:41:07.356Z,393.0769
2023-05-10T01:42:09.197Z,389.3846
2023-05-10T01:43:11.039Z,388.5385
2023-05-10T01:44:12.864Z,389.1538
2023-05-10T01:45:14.727Z,388.8462
2023-05-10T01:46:16.593Z,386.1538
2023-05-10T01:47:18.387Z,384.8462
2023-05-10T01:48:20.211Z,386.0000
2023-05-10T01:49:22.051Z,387.1538
2023-05-10T01:50:23.890Z,386.0769
2023-05-10T01:51:25.766Z,387.8462
2023-05-10T01:52:27.567Z,388.6154
2023-05-10T01:53:29.396Z,386.5385
2023-05-10T01:54:31.244Z,385.2308
2023-05-10T01:55:33.079Z,386.3846
2023-05-10T01:56:34.898Z,386.0769
2023-05-10T01:57:36.812Z,385.9231
2023-05-10T01:58:38.579Z,387.2308
2023-05-10T01:59:40.419Z,389.0769
2023-05-10T02:00:42.285Z,389.3846
2023-05-10T02:01:44.077Z,388.6923
2023-05-10T02:02:46.026Z,388.7692
2023-05-10T02:03:47.810Z,391.7692
2023-05-10T02:04:49.584Z,391.3846
2023-05-10T02:05:59.055Z,391.7692
2023-05-10T02:06:53.280Z,393.2500
2023-05-10T02:07:55.100Z,392.2308
2023-05-10T02:08:56.931Z,392.0769
2023-05-10T02:09:58.769Z,391.3077
2023-05-10T02:11:00.595Z,390.4615
2023-05-10T02:12:02.425Z,390.3077
2023-05-10T02:13:04.381Z,391.4615
2023-05-10T02:14:06.117Z,393.6923
2023-05-10T02:15:07.949Z,390.8462
2023-05-10T02:16:09.841Z,387.0769
2023-05-10T02:17:11.608Z,386.9231
2023-05-10T02:18:13.456Z,387.0000
2023-05-10T02:19:15.292Z,383.1538
2023-05-10T02:20:17.469Z,382.3077
2023-05-10T02:21:19.020Z,381.8462
2023-05-10T02:22:20.873Z,380.8462
2023-05-10T02:23:22.712Z,380.4615
2023-05-10T02:24:24.507Z,379.3077
2023-05-10T02:25:26.350Z,382.1538
2023-05-10T02:26:28.191Z,384.2308
2023-05-10T02:27:30.041Z,385.8462
2023-05-10T02:28:31.867Z,387.5385
2023-05-10T02:29:33.678Z,387.0000
2023-05-10T02:30:35.512Z,387.0769
2023-05-10T02:31:37.386Z,387.6923
2023-05-10T02:32:39.217Z,388.3077
2023-05-10T02:33:41.018Z,388.8462
2023-05-10T02:34:42.844Z,390.8462
2023-05-10T02:35:44.695Z,391.0000
2023-05-10T02:36:46.526Z,389.5385
2023-05-10T02:37:48.348Z,387.0769
2023-05-10T02:38:50.194Z,385.6923
2023-05-10T02:39:52.027Z,386.8462
2023-05-10T02:40:53.867Z,386.2308
2023-05-10T02:41:55.703Z,385.2308
2023-05-10T02:42:57.540Z,386.4615
2023-05-10T02:43:59.373Z,388.0000
2023-05-10T02:45:01.225Z,389.1538
2023-05-10T02:46:03.063Z,387.9231
2023-05-10T02:47:04.865Z,384.3077
2023-05-10T02:48:06.736Z,385.7692
2023-05-10T02:49:08.550Z,384.5385
2023-05-10T02:50:10.376Z,383.0000
2023-05-10T02:51:12.215Z,382.6154
2023-05-10T02:52:14.051Z,381.3846
2023-05-10T02:53:15.880Z,382.2308
2023-05-10T02:54:17.741Z,383.4615
2023-05-10T02:55:19.563Z,383.0769
2023-05-10T02:56:21.405Z,381.7692
2023-05-10T02:57:23.223Z,380.0769
2023-05-10T02:58:25.079Z,383.2308
2023-05-10T02:59:26.911Z,386.2308
2023-05-10T03:00:28.746Z,386.1538
2023-05-10T03:01:30.604Z,386.3846
2023-05-10T03:02:32.533Z,388.6923
2023-05-10T03:03:34.243Z,390.0000
2023-05-10T03:04:36.129Z,390.3846
2023-05-10T03:05:37.939Z,392.4615
2023-05-10T03:06:39.788Z,392.0769
2023-05-10T03:07:41.606Z,390.5385
2023-05-10T03:08:43.446Z,392.1538
2023-05-10T03:09:45.290Z,394.0769
2023-05-10T03:10:47.124Z,396.6154
2023-05-10T03:11:48.944Z,401.1538
2023-05-10T03:12:50.807Z,400.6923
2023-05-10T03:13:52.636Z,400.7692
2023-05-10T03:14:54.489Z,399.4615
2023-05-10T03:15:56.346Z,396.2308
2023-05-10T03:16:58.136Z,394.6154
2023-05-10T03:18:00.014Z,394.0769
2023-05-10T03:19:01.827Z,395.0000
2023-05-10T03:20:03.669Z,393.3077
2023-05-10T03:21:05.497Z,394.1538
2023-05-10T03:22:07.333Z,394.4615
2023-05-10T03:23:09.164Z,395.8462
2023-05-10T03:24:11.009Z,395.0769
2023-05-10T03:25:12.858Z,393.7692
2023-05-10T03:26:14.684Z,393.3846
2023-05-10T03:27:16.650Z,391.1538
2023-05-10T03:28:18.370Z,388.9231
2023-05-10T03:29:20.195Z,388.5385
2023-05-10T03:30:22.033Z,386.8462
2023-05-10T03:31:23.930Z,386.6923
2023-05-10T03:32:25.750Z,385.4615
2023-05-10T03:33:27.521Z,385.4615
2023-05-10T03:34:29.367Z,386.0000
2023-05-10T03:35:31.201Z,386.9231
2023-05-10T03:36:33.047Z,386.6154
2023-05-10T03:37:34.880Z,386.1538
2023-05-10T03:38:36.696Z,384.7692
2023-05-10T03:39:38.542Z,382.6923
2023-05-10T03:40:40.365Z,380.0769
2023-05-10T03:41:42.206Z,377.7692
2023-05-10T03:42:44.037Z,377.5385
2023-05-10T03:43:45.875Z,376.4615
2023-05-10T03:44:47.741Z,374.7692
2023-05-10T03:45:49.579Z,373.6923
2023-05-10T03:46:51.420Z,374.3077
2023-05-10T03:47:53.256Z,378.9231
2023-05-10T03:48:55.070Z,382.1538
2023-05-10T03:49:56.911Z,384.4615
2023-05-10T03:50:58.732Z,385.3077
2023-05-10T03:52:00.588Z,384.4615
2023-05-10T03:53:02.418Z,386.1538
2023-05-10T03:54:04.271Z,385.7692
2023-05-10T03:55:06.088Z,382.6154
2023-05-10T03:56:07.923Z,383.4615
2023-05-10T03:57:09.758Z,384.3846
2023-05-10T03:58:11.592Z,383.1538
2023-05-10T03:59:13.422Z,382.6154
2023-05-10T04:00:15.630Z,380.8462
2023-05-10T04:01:17.103Z,379.9231
2023-05-10T04:02:18.960Z,378.5385
2023-05-10T04:03:20.830Z,377.6154
2023-05-10T04:04:22.605Z,379.8462
2023-05-10T04:05:24.434Z,381.3846
2023-05-10T04:06:26.400Z,381.6154
2023-05-10T04:07:28.110Z,381.9231
2023-05-10T04:08:29.972Z,381.1538
2023-05-10T04:09:31.764Z,378.9231
2023-05-10T04:10:33.611Z,378.6154
2023-05-10T04:11:35.455Z,379.7692
2023-05-10T04:12:37.270Z,381.0000
2023-05-10T04:13:39.244Z,381.1538
2023-05-10T04:14:40.951Z,382.3077
2023-05-10T04:15:42.780Z,380.6923
2023-05-10T04:16:44.678Z,377.4615
2023-05-10T04:17:46.522Z,377.3846
2023-05-10T04:18:48.289Z,377.3077
2023-05-10T04:19:50.139Z,378.0769
2023-05-10T04:20:51.977Z,377.3846
2023-05-10T04:21:53.891Z,378.4615
2023-05-10T04:22:55.643Z,380.1538
2023-05-10T04:23:57.481Z,377.2308
2023-05-10T04:24:59.315Z,378.0000
2023-05-10T04:26:01.168Z,376.0769
2023-05-10T04:27:03.000Z,375.5385
2023-05-10T04:28:04.814Z,377.5385
2023-05-10T04:29:06.648Z,378.8462
2023-05-10T04:30:08.492Z,380.3077
2023-05-10T04:31:10.360Z,381.0000
2023-05-10T04:32:12.164Z,383.0769
2023-05-10T04:33:14.034Z,386.0769
2023-05-10T04:34:15.830Z,388.4615
2023-05-10T04:35:17.680Z,387.1538
2023-05-10T04:36:19.510Z,386.3077
2023-05-10T04:37:21.342Z,387.7692
2023-05-10T04:38:23.178Z,387.6923
2023-05-10T04:39:25.024Z,387.7692
2023-05-10T04:40:26.859Z,386.2308
2023-05-10T04:41:28.689Z,387.5385
2023-05-10T04:42:30.539Z,389.1538
2023-05-10T04:43:32.382Z,391.2308
2023-05-10T04:44:34.201Z,393.2308
2023-05-10T04:45:36.050Z,394.4615
2023-05-10T04:46:37.966Z,393.3077
2023-05-10T04:47:39.820Z,392.1538
2023-05-10T04:48:41.571Z,390.4615
2023-05-10T04:49:43.416Z,388.0769
2023-05-10T04:50:45.244Z,387.9231
2023-05-10T04:51:47.082Z,386.9231
2023-05-10T04:52:48.907Z,386.3846
2023-05-10T04:53:57.820Z,386.8462
2023-05-10T04:54:53.583Z,386.3077
2023-05-10T04:55:54.431Z,385.6923
2023-05-10T04:56:56.256Z,387.5385
2023-05-10T04:57:58.095Z,387.6154
2023-05-10T04:58:59.935Z,387.2308
2023-05-10T05:00:01.766Z,388.0000
2023-05-10T05:01:03.585Z,386.9231
2023-05-10T05:02:05.611Z,385.0769
2023-05-10T05:03:07.289Z,384.6923
2023-05-10T05:04:09.088Z,383.0000
2023-05-10T05:05:10.920Z,385.0769
2023-05-10T05:06:12.777Z,384.3077
2023-05-10T05:07:14.608Z,382.0000
2023-05-10T05:08:16.436Z,381.8462
2023-05-10T05:09:18.285Z,383.9231
2023-05-10T05:10:20.260Z,382.6923
2023-05-10T05:11:21.945Z,382.6154
2023-05-10T05:12:23.771Z,384.1538
2023-05-10T05:13:25.713Z,387.0000
2023-05-10T05:14:27.465Z,388.1538
2023-05-10T05:15:29.304Z,389.1538
2023-05-10T05:16:31.219Z,390.0000
2023-05-10T05:17:33.010Z,389.6923
2023-05-10T05:18:34.796Z,389.3077
2023-05-10T05:19:36.631Z,388.7692
2023-05-10T05:20:38.481Z,388.0769
2023-05-10T05:21:40.362Z,387.6154
2023-05-10T05:22:42.154Z,388.0000
2023-05-10T05:23:43.976Z,388.5385
2023-05-10T05:24:45.812Z,388.0769
2023-05-10T05:25:47.666Z,387.1538
2023-05-10T05:26:49.504Z,386.6923
2023-05-10T05:27:51.345Z,387.0769
2023-05-10T05:28:53.164Z,388.4615
2023-05-10T05:29:55.039Z,389.9231
2023-05-10T05:30:56.842Z,388.0000
2023-05-10T05:31:58.729Z,385.9231
2023-05-10T05:33:00.664Z,386.0769
2023-05-10T05:34:02.372Z,387.3077
2023-05-10T05:35:04.200Z,388.2308
2023-05-10T05:36:06.061Z,386.2308
2023-05-10T05:37:07.885Z,381.9231
2023-05-10T05:38:09.722Z,381.6154
2023-05-10T05:39:11.545Z,380.6154
2023-05-10T05:40:13.398Z,380.3077
2023-05-10T05:41:15.224Z,383.3077
2023-05-10T05:42:17.043Z,381.7692
2023-05-10T05:43:18.897Z,380.8462
2023-05-10T05:44:20.714Z,382.6923
2023-05-10T05:45:22.551Z,385.2308
2023-05-10T05:46:24.479Z,385.7692
2023-05-10T05:47:26.287Z,386.0769
2023-05-10T05:48:28.056Z,386.6154
2023-05-10T05:49:29.918Z,384.7692
2023-05-10T05:50:31.748Z,382.1538
2023-05-10T05:51:33.570Z,381.7692
2023-05-10T05:52:35.411Z,380.4615
2023-05-10T05:53:37.265Z,382.5385
2023-05-10T05:54:39.102Z,382.1538
2023-05-10T05:55:40.950Z,380.0000
2023-05-10T05:56:42.778Z,381.6923
2023-05-10T05:57:44.616Z,381.0769
2023-05-10T05:58:46.462Z,377.7692
2023-05-10T05:59:48.290Z,378.3846
2023-05-10T06:00:50.124Z,377.0769
2023-05-10T06:01:51.962Z,376.7692
2023-05-10T06:02:53.837Z,378.6154
2023-05-10T06:03:55.771Z,378.3846
2023-05-10T06:04:57.484Z,376.6923
2023-05-10T06:05:59.291Z,378.8462
2023-05-10T06:07:01.142Z,379.8462
2023-05-10T06:08:02.994Z,380.0000
2023-05-10T06:09:04.806Z,379.6923
2023-05-10T06:10:06.656Z,377.7692
2023-05-10T06:11:08.487Z,378.3077
2023-05-10T06:12:10.322Z,379.8462
2023-05-10T06:13:12.206Z,379.5385
2023-05-10T06:14:14.010Z,380.0769
2023-05-10T06:15:16.014Z,379.9231
2023-05-10T06:16:17.726Z,384.0769
2023-05-10T06:17:19.533Z,384.5385
2023-05-10T06:18:21.348Z,384.3077
2023-05-10T06:19:23.221Z,386.5385
2023-05-10T06:20:25.047Z,386.1538
2023-05-10T06:21:26.880Z,382.6154
2023-05-10T06:22:28.773Z,382.6923
2023-05-10T06:23:30.631Z,382.3846
2023-05-10T06:24:32.450Z,384.4615
2023-05-10T06:25:34.287Z,385.8462
2023-05-10T06:26:36.141Z,386.8462
2023-05-10T06:27:37.962Z,387.9231
2023-05-10T06:28:39.795Z,387.5385
2023-05-10T06:29:41.629Z,389.6923
2023-05-10T06:30:43.477Z,388.3846
2023-05-10T06:31:45.400Z,387.9231
2023-05-10T06:32:47.281Z,388.1538
2023-05-10T06:33:48.994Z,389.3077
2023-05-10T06:34:50.815Z,387.3077
2023-05-10T06:35:52.655Z,387.3846
2023-05-10T06:36:54.512Z,390.3077
2023-05-10T06:37:56.335Z,389.1538
2023-05-10T06:38:58.173Z,387.0000
2023-05-10T06:40:00.015Z,383.3846
2023-05-10T06:41:01.846Z,382.8462
2023-05-10T06:42:03.693Z,381.0000
2023-05-10T06:43:05.511Z,382.4615
2023-05-10T06:44:07.360Z,383.6154
2023-05-10T06:45:09.202Z,385.3077
2023-05-10T06:46:11.061Z,384.0769
2023-05-10T06:47:12.870Z,382.8462
2023-05-10T06:48:14.743Z,380.3077
2023-05-10T06:49:16.572Z,380.7692
2023-05-10T06:50:18.367Z,379.6923
2023-05-10T06:51:20.204Z,380.0769
2023-05-10T06:52:22.034Z,382.6154
2023-05-10T06:53:23.886Z,384.3077
2023-05-10T06:54:25.726Z,383.9231
2023-05-10T06:55:27.552Z,384.0769
2023-05-10T06:56:29.388Z,383.4615
2023-05-10T06:57:32.195Z,381.0769
2023-05-10T06:58:33.088Z,379.6923
2023-05-10T06:59:34.980Z,380.1538
2023-05-10T07:00:36.781Z,382.1538
2023-05-10T07:01:38.592Z,381.3846
2023-05-10T07:02:40.408Z,380.1538
2023-05-10T07:03:42.281Z,377.1538
2023-05-10T07:04:44.091Z,374.6923
2023-05-10T07:05:45.900Z,372.5385
2023-05-10T07:06:47.763Z,373.3846
2023-05-10T07:07:49.573Z,375.0769
2023-05-10T07:08:51.432Z,378.6154
2023-05-10T07:09:53.251Z,378.3077
2023-05-10T07:10:55.090Z,379.8462
2023-05-10T07:11:56.942Z,382.0000
2023-05-10T07:12:58.828Z,382.0769
2023-05-10T07:14:00.632Z,382.9231
2023-05-10T07:15:02.447Z,384.2308
2023-05-10T07:16:04.333Z,382.5385
2023-05-10T07:17:06.141Z,383.0000
2023-05-10T07:18:08.030Z,383.5385
2023-05-10T07:19:09.797Z,383.3846
2023-05-10T07:20:11.633Z,382.0000
2023-05-10T07:21:13.525Z,381.3846
2023-05-10T07:22:15.320Z,377.8462
2023-05-10T07:23:17.148Z,375.1538
2023-05-10T07:24:19.000Z,372.9231
2023-05-10T07:25:20.817Z,375.0769
2023-05-10T07:26:22.672Z,376.6154
2023-05-10T07:27:24.510Z,379.2308
2023-05-10T07:28:26.348Z,380.6154
2023-05-10T07:29:28.195Z,380.1538
2023-05-10T07:30:30.047Z,378.6154
2023-05-10T07:31:31.910Z,376.9231
2023-05-10T07:32:33.822Z,378.3846
2023-05-10T07:33:35.516Z,379.6923
2023-05-10T07:34:37.374Z,379.0769
2023-05-10T07:35:39.209Z,379.5385
2023-05-10T07:36:41.021Z,379.9231
2023-05-10T07:37:42.854Z,381.3846
2023-05-10T07:38:44.722Z,383.5385
2023-05-10T07:39:46.547Z,383.0000
2023-05-10T07:40:48.370Z,383.6154
2023-05-10T07:41:50.224Z,382.7692
2023-05-10T07:42:52.053Z,380.8462
2023-05-10T07:43:53.922Z,379.4615
2023-05-10T07:44:55.723Z,380.4615
2023-05-10T07:45:57.590Z,379.4615
2023-05-10T07:46:59.411Z,378.6923
2023-05-10T07:48:01.290Z,375.8462
2023-05-10T07:49:03.073Z,374.2308
2023-05-10T07:50:04.924Z,375.1538
2023-05-10T07:51:07.329Z,374.3846
2023-05-10T07:52:08.604Z,374.7692
2023-05-10T07:53:10.444Z,374.6923
2023-05-10T07:54:12.333Z,375.3077
2023-05-10T07:55:14.139Z,376.3077
2023-05-10T07:56:15.941Z,375.2308
2023-05-10T07:57:17.797Z,377.2308
2023-05-10T07:58:19.618Z,378.3846
2023-05-10T07:59:21.471Z,377.6923
2023-05-10T08:00:23.309Z,377.3846
2023-05-10T08:01:25.140Z,374.6923
2023-05-10T08:02:27.071Z,373.6154
2023-05-10T08:03:28.950Z,375.6154
2023-05-10T08:04:30.670Z,387.3846
2023-05-10T08:05:34.046Z,425.7692
2023-05-10T08:06:34.318Z,406.1538
2023-05-10T08:07:36.156Z,394.7692
2023-05-10T08:08:38.004Z,390.0769
2023-05-10T08:09:39.838Z,384.4615
2023-05-10T08:10:41.692Z,382.4615
2023-05-10T08:11:43.508Z,382.3846
2023-05-10T08:12:45.352Z,382.8462
2023-05-10T08:13:47.225Z,380.8462
2023-05-10T08:14:49.033Z,381.6923
2023-05-10T08:15:50.903Z,385.0769
2023-05-10T08:16:52.711Z,383.0769
2023-05-10T08:17:54.555Z,380.6154
2023-05-10T08:18:56.581Z,379.4615
2023-05-10T08:19:58.210Z,378.1538
2023-05-10T08:21:00.062Z,376.1538
2023-05-10T08:22:01.897Z,375.5385
2023-05-10T08:23:03.719Z,374.4615
2023-05-10T08:24:05.567Z,375.8462
2023-05-10T08:25:07.411Z,377.7692
2023-05-10T08:26:09.231Z,379.0769
2023-05-10T08:27:11.082Z,377.6923
2023-05-10T08:28:12.913Z,376.0000
2023-05-10T08:29:14.736Z,373.5385
2023-05-10T08:30:16.566Z,371.0000
2023-05-10T08:31:18.425Z,370.1538
2023-05-10T08:32:20.235Z,368.4615
2023-05-10T08:33:22.082Z,367.5385
2023-05-10T08:34:24.058Z,367.6154
2023-05-10T08:35:25.762Z,367.7692
2023-05-10T08:36:27.599Z,366.4615
2023-05-10T08:37:29.422Z,368.3846
2023-05-10T08:38:31.255Z,369.3077
2023-05-10T08:39:33.089Z,369.9231
2023-05-10T08:40:34.936Z,371.6154
2023-05-10T08:41:36.777Z,370.8462
2023-05-10T08:42:38.620Z,372.3077
2023-05-10T08:43:40.453Z,372.4615
2023-05-10T08:44:42.303Z,371.9231
2023-05-10T08:45:44.158Z,370.2308
2023-05-10T08:46:46.046Z,368.2308
2023-05-10T08:47:47.826Z,366.7692
2023-05-10T08:48:49.663Z,367.0000
2023-05-10T08:49:51.500Z,365.8462
2023-05-10T08:50:53.334Z,364.8462
2023-05-10T08:51:55.171Z,362.8462
2023-05-10T08:52:57.030Z,364.2308
2023-05-10T08:53:58.895Z,366.3077
2023-05-10T08:55:00.691Z,368.6154
2023-05-10T08:56:02.540Z,369.3077
2023-05-10T08:57:04.380Z,367.9231
2023-05-10T08:58:06.229Z,367.1538
2023-05-10T08:59:08.087Z,366.6923
2023-05-10T09:00:09.918Z,366.3077
2023-05-10T09:01:11.761Z,367.0000
2023-05-10T09:02:13.582Z,368.0000
2023-05-10T09:03:15.428Z,368.5385
2023-05-10T09:04:17.378Z,366.7692
2023-05-10T09:05:19.591Z,366.3846
2023-05-10T09:06:20.942Z,364.9231
2023-05-10T09:07:22.787Z,366.4615
2023-05-10T09:08:24.618Z,365.6154
2023-05-10T09:09:26.457Z,364.2308
2023-05-10T09:10:28.333Z,367.3077
2023-05-10T09:11:30.161Z,367.6923
2023-05-10T09:12:31.981Z,369.1538
2023-05-10T09:13:33.825Z,367.3846
2023-05-10T09:14:35.661Z,365.6923
2023-05-10T09:15:37.487Z,365.3077
2023-05-10T09:16:39.424Z,364.6154
2023-05-10T09:17:41.180Z,363.9231
2023-05-10T09:18:43.028Z,364.9231
2023-05-10T09:19:44.863Z,366.2308
2023-05-10T09:20:46.687Z,366.2308
2023-05-10T09:21:48.529Z,367.3077
2023-05-10T09:22:50.352Z,367.1538
2023-05-10T09:23:52.187Z,366.9231
2023-05-10T09:24:54.035Z,366.1538
2023-05-10T09:25:55.873Z,364.1538
2023-05-10T09:26:57.724Z,364.7692
2023-05-10T09:27:59.560Z,364.8462
2023-05-10T09:29:01.389Z,366.2308
2023-05-10T09:30:03.224Z,366.0000
2023-05-10T09:31:05.134Z,367.1538
2023-05-10T09:32:06.883Z,367.4615
2023-05-10T09:33:08.715Z,368.3846
2023-05-10T09:34:10.568Z,368.9231
2023-05-10T09:35:12.398Z,370.6154
2023-05-10T09:36:14.251Z,372.7692
2023-05-10T09:37:16.095Z,375.6923
2023-05-10T09:38:17.922Z,375.0769
2023-05-10T09:39:19.765Z,374.7692
2023-05-10T09:40:21.584Z,375.3846
2023-05-10T09:41:23.431Z,371.2308
2023-05-10T09:42:25.245Z,371.0769
2023-05-10T09:43:27.099Z,369.6154
2023-05-10T09:44:28.912Z,371.4615
2023-05-10T09:45:30.743Z,371.9231
2023-05-10T09:46:32.779Z,369.0769
2023-05-10T09:47:34.453Z,367.6154
2023-05-10T09:48:36.242Z,364.6154
2023-05-10T09:49:38.091Z,361.6923
2023-05-10T09:50:39.913Z,361.5385
2023-05-10T09:51:41.748Z,364.3077
2023-05-10T09:52:43.594Z,364.4615
2023-05-10T09:53:45.414Z,364.4615
2023-05-10T09:54:47.259Z,363.5385
2023-05-10T09:55:49.089Z,363.9231
2023-05-10T09:56:50.934Z,364.7692
2023-05-10T09:57:52.755Z,365.0769
2023-05-10T09:58:54.602Z,368.4615
2023-05-10T09:59:56.430Z,367.6923
2023-05-10T10:00:58.256Z,367.1538
2023-05-10T10:02:00.246Z,367.4615
2023-05-10T10:03:01.954Z,366.0000
2023-05-10T10:04:03.779Z,366.6154
2023-05-10T10:05:05.630Z,365.3077
2023-05-10T10:06:15.874Z,366.2308
2023-05-10T10:07:11.976Z,367.3846
2023-05-10T10:08:12.556Z,367.8462
2023-05-10T10:09:14.117Z,367.4615
2023-05-10T10:10:15.691Z,367.9231
2023-05-10T10:11:17.251Z,368.0769
2023-05-10T10:12:18.802Z,368.3077
2023-05-10T10:13:20.372Z,368.0000
2023-05-10T10:14:22.126Z,367.7692
2023-05-10T10:15:23.971Z,368.6923
2023-05-10T10:16:25.929Z,367.8462
2023-05-10T10:17:27.655Z,369.1538
2023-05-10T10:18:29.511Z,371.6923
2023-05-10T10:19:31.291Z,372.3846
2023-05-10T10:20:33.141Z,371.4615
2023-05-10T10:21:34.980Z,369.6923
2023-05-10T10:22:36.812Z,365.9231
2023-05-10T10:23:38.626Z,365.3846
2023-05-10T10:24:40.468Z,366.5385
2023-05-10T10:25:42.303Z,367.4615
2023-05-10T10:26:44.232Z,368.3846
2023-05-10T10:27:46.039Z,369.2308
2023-05-10T10:28:47.887Z,368.3846
2023-05-10T10:29:49.723Z,365.9231
2023-05-10T10:30:51.562Z,363.7692
2023-05-10T10:31:53.543Z,364.5385
2023-05-10T10:32:55.253Z,365.4615
2023-05-10T10:33:57.053Z,365.5385
2023-05-10T10:34:58.891Z,366.2308
2023-05-10T10:36:00.729Z,367.7692
2023-05-10T10:37:02.563Z,369.8462
2023-05-10T10:38:04.395Z,370.3077
2023-05-10T10:39:06.208Z,369.2308
2023-05-10T10:40:08.038Z,369.6923
2023-05-10T10:41:09.892Z,368.3077
2023-05-10T10:42:11.730Z,368.8462
2023-05-10T10:43:13.541Z,369.4615
2023-05-10T10:44:15.388Z,369.6923
2023-05-10T10:45:17.484Z,371.0000
2023-05-10T10:46:19.136Z,369.6923
2023-05-10T10:47:20.951Z,369.2308
2023-05-10T10:48:22.712Z,368.9231
2023-05-10T10:49:24.547Z,370.9231
2023-05-10T10:50:26.380Z,371.7692
2023-05-10T10:51:28.223Z,373.2308
2023-05-10T10:52:30.058Z,373.5385
2023-05-10T10:53:32.018Z,370.5385
2023-05-10T10:54:33.747Z,370.1538
2023-05-10T10:55:35.553Z,371.1538
2023-05-10T10:56:37.401Z,373.6923
2023-05-10T10:57:39.251Z,372.6154
2023-05-10T10:58:41.074Z,369.1538
2023-05-10T10:59:42.890Z,369.1538
2023-05-10T11:00:44.787Z,370.9231
2023-05-10T11:01:46.576Z,368.6154
2023-05-10T11:02:48.439Z,367.5385
2023-05-10T11:03:50.248Z,368.3077
2023-05-10T11:04:52.077Z,369.4615
2023-05-10T11:05:53.917Z,368.7692
2023-05-10T11:06:55.763Z,367.8462
2023-05-10T11:07:57.599Z,366.6154
2023-05-10T11:08:59.426Z,366.6154
2023-05-10T11:10:01.274Z,365.2308
2023-05-10T11:11:03.151Z,365.3846
2023-05-10T11:12:04.955Z,367.3846
2023-05-10T11:13:06.805Z,369.0769
2023-05-10T11:14:08.644Z,369.2308
2023-05-10T11:15:10.476Z,368.4615
2023-05-10T11:16:12.332Z,369.6923
2023-05-10T11:17:14.181Z,368.7692
2023-05-10T11:18:16.014Z,369.6923
2023-05-10T11:19:17.847Z,368.0000
2023-05-10T11:20:19.864Z,367.8462
2023-05-10T11:21:21.505Z,370.6923
2023-05-10T11:22:23.346Z,369.6154
2023-05-10T11:23:25.182Z,370.0000
2023-05-10T11:24:27.033Z,369.5385
2023-05-10T11:25:28.869Z,370.4615
2023-05-10T11:26:30.712Z,371.5385
2023-05-10T11:27:32.553Z,371.7692
2023-05-10T11:28:34.381Z,370.3077
2023-05-10T11:29:36.237Z,369.8462
2023-05-10T11:30:38.089Z,369.6923
2023-05-10T11:31:39.930Z,367.3077
2023-05-10T11:32:41.784Z,365.6154
2023-05-10T11:33:43.611Z,364.4615
2023-05-10T11:34:45.449Z,362.6923
2023-05-10T11:35:47.289Z,362.6923
2023-05-10T11:36:49.134Z,361.0000
2023-05-10T11:37:50.984Z,362.3077
2023-05-10T11:38:52.809Z,366.1538
2023-05-10T11:39:54.651Z,367.6154
2023-05-10T11:40:56.488Z,367.8462
2023-05-10T11:41:58.329Z,368.7692
2023-05-10T11:43:00.165Z,368.6923
2023-05-10T11:44:02.028Z,370.1538
2023-05-10T11:45:03.864Z,368.8462
2023-05-10T11:46:05.724Z,370.0000
2023-05-10T11:47:07.528Z,367.5385
2023-05-10T11:48:09.419Z,369.3846
2023-05-10T11:49:11.208Z,371.1538
2023-05-10T11:50:13.034Z,369.6923
2023-05-10T11:51:14.900Z,369.5385
2023-05-10T11:52:16.713Z,373.3846
2023-05-10T11:53:18.568Z,373.6154
2023-05-10T11:54:20.401Z,375.3077
2023-05-10T11:55:22.239Z,376.6923
2023-05-10T11:56:24.073Z,374.1538
2023-05-10T11:57:25.931Z,374.0769
2023-05-10T11:58:27.755Z,372.3846
2023-05-10T11:59:29.608Z,372.2308
2023-05-10T12:00:31.442Z,372.2308
2023-05-10T12:01:33.283Z,372.9231
2023-05-10T12:02:35.245Z,373.8462
2023-05-10T12:03:37.054Z,373.3846
2023-05-10T12:04:38.857Z,374.2308
2023-05-10T12:05:42.897Z,372.6154